createdAt,value
2018-07-15T00:00:59.247Z,4.37
2018-07-15T00:03:27.718Z,4.70
2018-07-15T00:05:56.188Z,4.43
2018-07-15T00:08:25.039Z,4.60
2018-07-15T00:10:53.482Z,4.90
2018-07-15T00:13:21.967Z,4.57
2018-07-15T00:15:50.412Z,4.97
2018-07-15T00:18:19.169Z,4.63
2018-07-15T00:20:47.346Z,4.53
2018-07-15T00:23:15.843Z,5.03
2018-07-15T00:25:44.304Z,4.77
2018-07-15T00:28:12.764Z,4.57
2018-07-15T00:30:41.240Z,5.30
2018-07-15T00:33:09.734Z,5.20
2018-07-15T00:35:38.164Z,4.53
2018-07-15T00:38:06.938Z,4.77
2018-07-15T00:40:35.628Z,4.60
2018-07-15T00:43:04.431Z,4.53
2018-07-15T00:45:32.902Z,4.50
2018-07-15T00:48:01.337Z,4.37
2018-07-15T00:50:30.181Z,5.03
2018-07-15T00:52:59.518Z,4.43
2018-07-15T00:55:27.984Z,4.57
2018-07-15T00:57:56.422Z,4.57
2018-07-15T01:00:30.195Z,4.43
2018-07-15T01:02:58.639Z,4.87
2018-07-15T01:05:27.106Z,4.77
2018-07-15T01:07:55.539Z,4.13
2018-07-15T01:10:24.039Z,4.87
2018-07-15T01:12:52.851Z,4.67
2018-07-15T01:15:21.340Z,4.17
2018-07-15T01:17:50.139Z,4.77
2018-07-15T01:20:18.640Z,5.17
2018-07-15T01:22:47.088Z,4.77
2018-07-15T01:25:15.588Z,4.63
2018-07-15T01:27:44.021Z,4.40
2018-07-15T01:30:12.852Z,4.30
2018-07-15T01:32:41.289Z,4.73
2018-07-15T01:35:09.768Z,4.40
2018-07-15T01:37:38.218Z,4.40
2018-07-15T01:40:06.956Z,4.40
2018-07-15T01:42:35.395Z,4.73
2018-07-15T01:45:03.897Z,4.70
2018-07-15T01:47:32.342Z,4.53
2018-07-15T01:50:00.831Z,4.43
2018-07-15T01:52:29.276Z,4.70
2018-07-15T01:54:57.787Z,4.27
2018-07-15T01:57:26.231Z,4.10
2018-07-15T01:59:54.713Z,4.40
2018-07-15T02:02:23.226Z,4.23
2018-07-15T02:04:51.698Z,4.20
2018-07-15T02:07:20.133Z,3.93
2018-07-15T02:09:48.609Z,4.03
2018-07-15T02:12:17.100Z,4.17
2018-07-15T02:14:45.629Z,3.80
2018-07-15T02:17:14.076Z,3.47
2018-07-15T02:19:42.811Z,4.27
2018-07-15T02:22:11.304Z,3.90
2018-07-15T02:24:39.807Z,3.97
2018-07-15T02:27:08.411Z,4.03
2018-07-15T02:29:36.892Z,4.30
2018-07-15T02:32:05.392Z,4.03
2018-07-15T02:34:33.880Z,3.57
2018-07-15T02:37:02.332Z,3.87
2018-07-15T02:39:30.779Z,4.17
2018-07-15T02:41:59.260Z,3.60
2018-07-15T02:44:27.729Z,3.97
2018-07-15T02:46:56.196Z,4.10
2018-07-15T02:49:24.636Z,4.13
2018-07-15T02:51:53.696Z,3.87
2018-07-15T02:54:22.160Z,4.07
2018-07-15T02:56:50.661Z,4.23
2018-07-15T02:59:19.096Z,4.30
2018-07-15T03:01:47.584Z,4.00
2018-07-15T03:04:16.017Z,4.20
2018-07-15T03:06:44.491Z,3.90
2018-07-15T03:09:12.991Z,3.90
2018-07-15T03:11:41.452Z,3.80
2018-07-15T03:14:09.898Z,3.97
2018-07-15T03:16:38.718Z,4.40
2018-07-15T03:19:07.141Z,3.80
2018-07-15T03:21:35.648Z,3.57
2018-07-15T03:24:04.124Z,3.87
2018-07-15T03:26:32.954Z,3.97
2018-07-15T03:29:01.388Z,3.80
2018-07-15T03:31:29.859Z,4.30
2018-07-15T03:33:58.290Z,3.97
2018-07-15T03:36:26.796Z,5.30
2018-07-15T03:38:55.245Z,4.00
2018-07-15T03:41:23.732Z,4.00
2018-07-15T03:43:52.169Z,3.70
2018-07-15T03:46:20.815Z,3.80
2018-07-15T03:48:49.240Z,4.13
2018-07-15T03:51:17.709Z,4.13
2018-07-15T03:53:46.164Z,4.60
2018-07-15T03:56:14.612Z,4.17
2018-07-15T03:58:43.093Z,3.90
2018-07-15T04:01:11.548Z,3.83
2018-07-15T04:03:40.340Z,4.30
2018-07-15T04:06:08.799Z,4.23
2018-07-15T04:08:37.295Z,4.27
2018-07-15T04:11:05.887Z,4.10
2018-07-15T04:13:34.393Z,4.27
2018-07-15T04:16:02.825Z,4.33
2018-07-15T04:18:31.291Z,4.27
2018-07-15T04:20:59.783Z,4.07
2018-07-15T04:23:28.264Z,4.17
2018-07-15T04:25:56.711Z,4.37
2018-07-15T04:28:25.250Z,4.40
2018-07-15T04:30:53.814Z,4.13
2018-07-15T04:33:22.302Z,4.87
2018-07-15T04:35:50.740Z,4.70
2018-07-15T04:38:19.228Z,4.27
2018-07-15T04:40:47.673Z,3.93
2018-07-15T04:43:16.156Z,4.07
2018-07-15T04:45:44.780Z,4.50
2018-07-15T04:48:13.235Z,3.93
2018-07-15T04:50:41.677Z,4.03
2018-07-15T04:53:10.136Z,3.83
2018-07-15T04:55:38.567Z,4.30
2018-07-15T04:58:07.412Z,4.47
2018-07-15T05:00:35.864Z,3.37
2018-07-15T05:03:04.346Z,4.60
2018-07-15T05:05:32.771Z,4.60
2018-07-15T05:08:01.245Z,4.20
2018-07-15T05:10:29.731Z,4.00
2018-07-15T05:12:58.201Z,4.63
2018-07-15T05:15:26.631Z,4.30
2018-07-15T05:17:55.554Z,4.13
2018-07-15T05:20:24.370Z,4.07
2018-07-15T05:22:52.832Z,3.93
2018-07-15T05:25:21.302Z,3.80
2018-07-15T05:27:49.746Z,3.97
2018-07-15T05:30:18.232Z,3.73
2018-07-15T05:32:46.691Z,4.33
2018-07-15T05:35:15.179Z,4.17
2018-07-15T05:37:43.305Z,4.07
2018-07-15T05:40:11.800Z,3.97
2018-07-15T05:42:40.255Z,3.90
2018-07-15T05:45:08.729Z,3.97
2018-07-15T05:47:37.181Z,4.00
2018-07-15T05:50:05.686Z,3.83
2018-07-15T05:52:34.164Z,3.90
2018-07-15T05:55:02.646Z,3.97
2018-07-15T05:57:31.276Z,4.10
2018-07-15T06:00:02.928Z,4.13
2018-07-15T06:02:34.993Z,3.70
2018-07-15T06:05:05.776Z,4.20
2018-07-15T06:07:34.227Z,4.03
2018-07-15T06:10:02.704Z,3.77
2018-07-15T06:12:31.185Z,4.20
2018-07-15T06:14:59.667Z,3.90
2018-07-15T06:17:28.180Z,3.90
2018-07-15T06:19:56.678Z,4.20
2018-07-15T06:22:25.120Z,3.90
2018-07-15T06:24:53.952Z,4.00
2018-07-15T06:27:22.387Z,3.87
2018-07-15T06:29:50.855Z,4.40
2018-07-15T06:32:19.299Z,3.90
2018-07-15T06:34:47.829Z,3.80
2018-07-15T06:37:16.267Z,4.20
2018-07-15T06:39:44.735Z,4.20
2018-07-15T06:42:13.562Z,4.10
2018-07-15T06:44:42.011Z,4.30
2018-07-15T06:47:10.479Z,4.30
2018-07-15T06:49:38.915Z,4.40
2018-07-15T06:52:07.383Z,4.40
2018-07-15T06:54:35.522Z,4.97
2018-07-15T06:57:04.052Z,4.70
2018-07-15T06:59:32.501Z,4.83
2018-07-15T07:02:01.000Z,4.63
2018-07-15T07:04:29.431Z,4.87
2018-07-15T07:06:57.916Z,4.83
2018-07-15T07:09:26.344Z,4.57
2018-07-15T07:11:54.779Z,4.80
2018-07-15T07:14:23.250Z,5.07
2018-07-15T07:16:51.677Z,4.77
2018-07-15T07:19:20.212Z,4.77
2018-07-15T07:21:48.642Z,4.90
2018-07-15T07:24:17.280Z,5.00
2018-07-15T07:26:45.723Z,4.80
2018-07-15T07:29:14.264Z,4.83
2018-07-15T07:31:43.092Z,5.10
2018-07-15T07:34:11.580Z,5.00
2018-07-15T07:36:40.041Z,5.17
2018-07-15T07:39:08.920Z,4.53
2018-07-15T07:41:37.376Z,5.07
2018-07-15T07:44:05.875Z,4.40
2018-07-15T07:46:34.311Z,5.00
2018-07-15T07:49:02.784Z,4.87
2018-07-15T07:51:31.216Z,4.67
2018-07-15T07:53:59.391Z,4.50
2018-07-15T07:56:28.378Z,5.45
2018-07-15T07:58:56.530Z,4.70
2018-07-15T08:01:25.510Z,4.85
2018-07-15T08:03:54.554Z,5.12
2018-07-15T08:06:23.552Z,4.58
2018-07-15T08:08:52.566Z,5.05
2018-07-15T08:11:21.541Z,5.12
2018-07-15T08:13:50.691Z,4.80
2018-07-15T08:16:19.794Z,4.65
2018-07-15T08:18:48.819Z,4.80
2018-07-15T08:21:17.835Z,4.50
2018-07-15T08:23:46.854Z,4.90
2018-07-15T08:26:15.863Z,4.75
2018-07-15T08:28:44.885Z,4.80
2018-07-15T08:31:17.199Z,4.58
2018-07-15T08:33:46.266Z,4.62
2018-07-15T08:36:15.270Z,4.33
2018-07-15T08:38:44.279Z,4.90
2018-07-15T08:41:13.282Z,4.30
2018-07-15T08:43:42.291Z,4.55
2018-07-15T08:46:11.343Z,4.42
2018-07-15T08:48:40.508Z,4.42
2018-07-15T08:51:09.492Z,4.35
2018-07-15T08:53:38.535Z,4.80
2018-07-15T08:56:07.830Z,4.90
2018-07-15T08:58:36.545Z,4.55
2018-07-15T09:01:05.586Z,4.53
2018-07-15T09:03:34.804Z,4.53
2018-07-15T09:06:03.837Z,4.80
2018-07-15T09:08:32.875Z,4.60
2018-07-15T09:11:01.911Z,4.45
2018-07-15T09:13:30.953Z,4.78
2018-07-15T09:15:59.965Z,4.33
2018-07-15T09:18:29.539Z,4.45
2018-07-15T09:20:58.596Z,4.40
2018-07-15T09:23:27.574Z,4.28
2018-07-15T09:25:56.595Z,4.28
2018-07-15T09:28:25.591Z,3.70
2018-07-15T09:30:54.626Z,3.70
2018-07-15T09:33:23.671Z,4.20
2018-07-15T09:35:52.689Z,3.47
2018-07-15T09:38:21.680Z,3.83
2018-07-15T09:40:50.725Z,3.55
2018-07-15T09:43:19.430Z,3.65
2018-07-15T09:45:48.472Z,3.87
2018-07-15T09:48:17.446Z,4.20
2018-07-15T09:50:46.614Z,3.80
2018-07-15T09:53:15.596Z,3.35
2018-07-15T09:55:44.620Z,3.30
2018-07-15T09:58:13.753Z,3.10
2018-07-15T10:00:48.334Z,2.87
2018-07-15T10:03:17.357Z,3.40
2018-07-15T10:05:46.397Z,3.15
2018-07-15T10:08:15.416Z,2.75
2018-07-15T10:10:44.484Z,2.77
2018-07-15T10:13:13.520Z,3.10
2018-07-15T10:15:42.567Z,3.10
2018-07-15T10:18:11.541Z,3.10
2018-07-15T10:20:40.976Z,3.33
2018-07-15T10:23:09.973Z,3.40
2018-07-15T10:25:39.002Z,3.10
2018-07-15T10:28:08.019Z,3.25
2018-07-15T10:30:37.041Z,2.87
2018-07-15T10:33:06.038Z,2.80
2018-07-15T10:35:45.546Z,3.00
2018-07-15T10:38:14.663Z,2.80
2018-07-15T10:40:43.707Z,3.17
2018-07-15T10:43:12.694Z,2.90
2018-07-15T10:45:41.760Z,2.65
2018-07-15T10:48:11.095Z,2.62
2018-07-15T10:50:40.119Z,2.60
2018-07-15T10:53:09.171Z,2.52
2018-07-15T10:55:38.232Z,2.10
2018-07-15T10:58:07.232Z,2.50
2018-07-15T11:00:35.922Z,2.45
2018-07-15T11:03:04.926Z,2.52
2018-07-15T11:05:34.128Z,2.37
2018-07-15T11:08:03.472Z,2.50
2018-07-15T11:10:32.515Z,2.10
2018-07-15T11:13:01.526Z,2.30
2018-07-15T11:15:30.518Z,2.30
2018-07-15T11:17:59.692Z,2.70
2018-07-15T11:20:28.913Z,2.62
2018-07-15T11:22:57.955Z,2.40
2018-07-15T11:25:26.614Z,2.37
2018-07-15T11:27:55.664Z,2.47
2018-07-15T11:30:24.724Z,2.42
2018-07-15T11:32:53.706Z,2.58
2018-07-15T11:35:22.704Z,2.70
2018-07-15T11:37:51.739Z,2.50
2018-07-15T11:40:20.768Z,2.72
2018-07-15T11:42:49.843Z,2.65
2018-07-15T11:45:18.836Z,2.37
2018-07-15T11:47:47.850Z,2.87
2018-07-15T11:50:16.870Z,2.70
2018-07-15T11:52:45.868Z,2.50
2018-07-15T11:55:14.869Z,3.00
2018-07-15T11:57:43.892Z,2.70
2018-07-15T12:00:12.862Z,2.50
2018-07-15T12:02:41.867Z,2.70
2018-07-15T12:05:10.854Z,2.70
2018-07-15T12:07:39.874Z,2.70
2018-07-15T12:10:08.905Z,2.60
2018-07-15T12:12:37.946Z,2.40
2018-07-15T12:15:07.284Z,3.10
2018-07-15T12:17:36.031Z,3.70
2018-07-15T12:20:05.140Z,3.10
2018-07-15T12:22:34.164Z,3.12
2018-07-15T12:25:03.159Z,3.00
2018-07-15T12:27:32.159Z,2.52
2018-07-15T12:30:01.145Z,2.60
2018-07-15T12:32:30.171Z,2.80
2018-07-15T12:34:59.141Z,2.62
2018-07-15T12:37:28.164Z,2.90
2018-07-15T12:39:57.138Z,2.95
2018-07-15T12:42:26.179Z,3.12
2018-07-15T12:44:55.551Z,3.35
2018-07-15T12:47:24.608Z,3.98
2018-07-15T12:49:53.627Z,4.20
2018-07-15T12:52:23.019Z,4.40
2018-07-15T12:54:52.015Z,4.53
2018-07-15T12:57:21.136Z,4.35
2018-07-15T12:59:50.149Z,3.70
2018-07-15T13:02:19.383Z,3.70
2018-07-15T13:04:47.839Z,4.03
2018-07-15T13:07:16.322Z,4.10
2018-07-15T13:09:44.804Z,4.87
2018-07-15T13:12:13.298Z,5.53
2018-07-15T13:14:41.753Z,5.30
2018-07-15T13:17:10.255Z,5.77
2018-07-15T13:19:38.803Z,5.47
2018-07-15T13:22:07.771Z,5.50
2018-07-15T13:24:36.235Z,5.30
2018-07-15T13:27:04.765Z,5.00
2018-07-15T13:29:33.261Z,4.87
2018-07-15T13:32:02.029Z,4.50
2018-07-15T13:34:30.594Z,4.83
2018-07-15T13:36:59.183Z,4.50
2018-07-15T13:39:27.665Z,4.13
2018-07-15T13:41:56.182Z,4.43
2018-07-15T13:44:24.887Z,4.33
2018-07-15T13:46:53.679Z,3.93
2018-07-15T13:49:21.940Z,4.47
2018-07-15T13:51:50.744Z,4.40
2018-07-15T13:54:19.236Z,4.30
2018-07-15T13:56:47.664Z,4.13
2018-07-15T13:59:16.143Z,4.37
2018-07-15T14:01:44.634Z,4.33
2018-07-15T14:04:13.727Z,4.80
2018-07-15T14:06:42.902Z,4.90
2018-07-15T14:09:11.959Z,4.67
2018-07-15T14:11:40.949Z,5.33
2018-07-15T14:14:09.984Z,5.87
2018-07-15T14:16:38.983Z,5.37
2018-07-15T14:19:08.383Z,5.25
2018-07-15T14:21:37.428Z,5.00
2018-07-15T14:24:06.444Z,5.03
2018-07-15T14:26:36.147Z,4.58
2018-07-15T14:29:05.340Z,4.53
2018-07-15T14:31:34.412Z,3.98
2018-07-15T14:34:03.757Z,4.05
2018-07-15T14:36:32.808Z,4.10
2018-07-15T14:39:02.338Z,4.05
2018-07-15T14:41:31.380Z,5.22
2018-07-15T14:44:00.440Z,5.40
2018-07-15T14:46:31.570Z,5.20
2018-07-15T14:49:01.268Z,5.03
2018-07-15T14:51:30.621Z,5.03
2018-07-15T14:53:59.672Z,4.97
2018-07-15T14:56:28.648Z,5.03
2018-07-15T14:58:57.758Z,4.72
2018-07-15T15:01:26.808Z,4.67
2018-07-15T15:03:55.830Z,4.80
2018-07-15T15:06:25.017Z,4.70
2018-07-15T15:08:54.039Z,4.42
2018-07-15T15:11:23.241Z,4.45
2018-07-15T15:13:52.260Z,4.20
2018-07-15T15:16:20.943Z,3.62
2018-07-15T15:18:50.046Z,3.65
2018-07-15T15:21:19.084Z,3.45
2018-07-15T15:23:48.166Z,3.60
2018-07-15T15:26:17.341Z,3.70
2018-07-15T15:28:46.328Z,3.67
2018-07-15T15:31:15.335Z,3.10
2018-07-15T15:33:44.717Z,3.62
2018-07-15T15:36:13.876Z,3.47
2018-07-15T15:38:42.846Z,3.45
2018-07-15T15:41:12.216Z,3.45
2018-07-15T15:43:41.242Z,3.05
2018-07-15T15:46:10.264Z,3.10
2018-07-15T15:48:39.245Z,3.15
2018-07-15T15:51:08.781Z,3.22
2018-07-15T15:53:37.756Z,3.52
2018-07-15T15:56:06.807Z,3.10
2018-07-15T15:58:35.801Z,3.25
2018-07-15T16:01:05.211Z,3.27
2018-07-15T16:03:34.207Z,3.40
2018-07-15T16:06:03.588Z,3.08
2018-07-15T16:08:32.596Z,2.83
2018-07-15T16:11:02.005Z,3.50
2018-07-15T16:13:31.018Z,3.50
2018-07-15T16:16:00.387Z,3.58
2018-07-15T16:18:29.442Z,3.08
2018-07-15T16:20:58.492Z,2.98
2018-07-15T16:23:27.489Z,3.22
2018-07-15T16:25:56.696Z,3.20
2018-07-15T16:28:25.675Z,3.00
2018-07-15T16:30:55.044Z,3.05
2018-07-15T16:33:24.099Z,3.65
2018-07-15T16:35:53.207Z,2.90
2018-07-15T16:38:21.878Z,3.00
2018-07-15T16:40:50.594Z,2.40
2018-07-15T16:43:19.551Z,2.55
2018-07-15T16:45:48.576Z,2.47
2018-07-15T16:48:17.551Z,2.60
2018-07-15T16:50:46.586Z,2.75
2018-07-15T16:53:15.555Z,2.90
2018-07-15T16:55:44.642Z,3.00
2018-07-15T16:58:13.667Z,3.47
2018-07-15T17:00:42.719Z,3.47
2018-07-15T17:03:11.733Z,3.40
2018-07-15T17:05:40.911Z,3.40
2018-07-15T17:08:09.955Z,3.30
2018-07-15T17:10:39.026Z,3.10
2018-07-15T17:13:08.026Z,3.40
2018-07-15T17:15:37.045Z,3.60
2018-07-15T17:18:06.132Z,3.55
2018-07-15T17:20:35.160Z,2.90
2018-07-15T17:23:04.341Z,3.35
2018-07-15T17:25:33.331Z,3.05
2018-07-15T17:28:02.453Z,3.65
2018-07-15T17:30:31.439Z,3.30
2018-07-15T17:33:00.460Z,3.37
2018-07-15T17:35:29.463Z,3.30
2018-07-15T17:37:58.491Z,3.25
2018-07-15T17:40:27.791Z,3.55
2018-07-15T17:42:56.935Z,3.15
2018-07-15T17:45:25.916Z,3.30
2018-07-15T17:47:54.939Z,3.30
2018-07-15T17:50:23.918Z,3.55
2018-07-15T17:52:52.938Z,3.30
2018-07-15T17:55:21.950Z,3.70
2018-07-15T17:57:51.135Z,3.27
2018-07-15T18:00:20.119Z,2.62
2018-07-15T18:02:49.139Z,3.60
2018-07-15T18:05:18.125Z,3.35
2018-07-15T18:07:47.154Z,3.40
2018-07-15T18:10:16.533Z,3.58
2018-07-15T18:12:45.571Z,3.75
2018-07-15T18:15:14.556Z,3.20
2018-07-15T18:17:43.632Z,3.47
2018-07-15T18:20:12.668Z,3.42
2018-07-15T18:22:41.732Z,3.62
2018-07-15T18:25:10.760Z,3.70
2018-07-15T18:27:39.254Z,3.97
2018-07-15T18:30:08.256Z,3.55
2018-07-15T18:32:36.767Z,3.70
2018-07-15T18:35:05.256Z,3.70
2018-07-15T18:37:33.741Z,3.60
2018-07-15T18:40:02.232Z,3.80
2018-07-15T18:42:30.813Z,3.40
2018-07-15T18:44:59.436Z,3.60
2018-07-15T18:47:28.113Z,3.57
2018-07-15T18:49:56.546Z,3.60
2018-07-15T18:52:25.094Z,3.60
2018-07-15T18:54:53.527Z,3.73
2018-07-15T18:57:22.021Z,3.53
2018-07-15T18:59:50.499Z,3.53
2018-07-15T19:02:19.005Z,3.90
2018-07-15T19:04:47.652Z,4.07
2018-07-15T19:07:16.120Z,3.90
2018-07-15T19:09:44.631Z,3.90
2018-07-15T19:12:13.118Z,3.57
2018-07-15T19:14:41.592Z,3.53
2018-07-15T19:17:10.083Z,3.60
2018-07-15T19:19:38.611Z,3.70
2018-07-15T19:22:07.064Z,3.57
2018-07-15T19:24:35.932Z,3.80
2018-07-15T19:27:04.949Z,3.20
2018-07-15T19:29:34.483Z,3.40
2018-07-15T19:32:02.984Z,3.57
2018-07-15T19:34:31.471Z,3.53
2018-07-15T19:37:01.301Z,3.80
2018-07-15T19:39:29.789Z,3.50
2018-07-15T19:41:59.294Z,3.80
2018-07-15T19:44:28.048Z,3.93
2018-07-15T19:46:56.554Z,4.13
2018-07-15T19:49:25.264Z,3.73
2018-07-15T19:51:54.090Z,4.07
2018-07-15T19:54:22.931Z,4.50
2018-07-15T19:56:52.413Z,4.10
2018-07-15T19:59:21.236Z,4.00
2018-07-15T20:01:51.025Z,3.73
2018-07-15T20:04:19.615Z,4.27
2018-07-15T20:06:48.231Z,4.60
2018-07-15T20:09:16.948Z,4.37
2018-07-15T20:11:45.903Z,4.80
2018-07-15T20:14:14.492Z,4.13
2018-07-15T20:16:43.322Z,4.00
2018-07-15T20:19:11.901Z,4.33
2018-07-15T20:21:40.925Z,4.20
2018-07-15T20:24:09.744Z,4.53
2018-07-15T20:26:38.361Z,4.50
2018-07-15T20:29:06.860Z,4.57
2018-07-15T20:31:35.647Z,4.60
2018-07-15T20:34:04.591Z,4.20
2018-07-15T20:36:33.613Z,4.87
2018-07-15T20:39:03.209Z,4.70
2018-07-15T20:41:31.726Z,4.37
2018-07-15T20:44:00.599Z,4.60
2018-07-15T20:46:29.055Z,4.53
2018-07-15T20:48:57.549Z,4.77
2018-07-15T20:51:26.000Z,4.67
2018-07-15T20:53:54.506Z,4.77
2018-07-15T20:56:23.252Z,4.97
2018-07-15T20:58:51.839Z,4.77
2018-07-15T21:01:20.271Z,4.70
2018-07-15T21:03:48.744Z,4.37
2018-07-15T21:06:18.319Z,4.50
2018-07-15T21:08:47.208Z,4.73
2018-07-15T21:11:15.647Z,5.27
2018-07-15T21:13:44.139Z,4.80
2018-07-15T21:16:13.026Z,4.90
2018-07-15T21:18:41.508Z,5.27
2018-07-15T21:21:10.006Z,4.50
2018-07-15T21:23:38.492Z,4.90
2018-07-15T21:26:06.983Z,4.80
2018-07-15T21:28:35.418Z,5.10
2018-07-15T21:31:04.327Z,5.40
2018-07-15T21:33:32.814Z,5.17
2018-07-15T21:36:01.306Z,5.13
2018-07-15T21:38:29.788Z,5.03
2018-07-15T21:40:58.283Z,5.10
2018-07-15T21:43:26.755Z,4.73
2018-07-15T21:45:55.300Z,4.80
2018-07-15T21:48:23.748Z,5.00
2018-07-15T21:50:52.243Z,4.97
2018-07-15T21:53:20.674Z,4.80
2018-07-15T21:55:49.241Z,5.30
2018-07-15T21:58:17.719Z,4.87
2018-07-15T22:00:46.211Z,5.00
2018-07-15T22:03:14.661Z,5.27
2018-07-15T22:05:43.182Z,5.53
2018-07-15T22:08:16.803Z,5.30
2018-07-15T22:10:46.494Z,5.83
2018-07-15T22:13:15.013Z,5.80
2018-07-15T22:15:43.550Z,5.70
2018-07-15T22:18:12.052Z,5.80
2018-07-15T22:20:40.553Z,5.90
2018-07-15T22:23:09.029Z,5.60
2018-07-15T22:25:37.572Z,5.70
2018-07-15T22:28:06.132Z,5.87
2018-07-15T22:30:34.756Z,5.73
2018-07-15T22:33:03.224Z,5.13
2018-07-15T22:35:32.048Z,5.80
2018-07-15T22:38:00.532Z,6.23
2018-07-15T22:40:29.016Z,5.93
2018-07-15T22:42:57.479Z,5.83
2018-07-15T22:45:26.181Z,6.00
2018-07-15T22:47:54.631Z,5.70
2018-07-15T22:50:23.165Z,5.73
2018-07-15T22:52:51.671Z,6.00
2018-07-15T22:55:20.250Z,5.83
2018-07-15T22:57:48.738Z,6.60
2018-07-15T23:00:17.320Z,6.50
2018-07-15T23:02:45.768Z,6.50
2018-07-15T23:05:37.823Z,6.50
2018-07-15T23:08:07.354Z,6.03
2018-07-15T23:10:35.866Z,6.13
2018-07-15T23:13:06.736Z,5.57
2018-07-15T23:15:35.650Z,6.03
2018-07-15T23:18:04.255Z,5.97
2018-07-15T23:20:33.432Z,6.60
2018-07-15T23:23:02.760Z,6.10
2018-07-15T23:25:31.866Z,6.37
2018-07-15T23:28:01.457Z,6.10
2018-07-15T23:30:30.904Z,5.83
2018-07-15T23:32:59.530Z,6.23
2018-07-15T23:35:27.995Z,6.27
2018-07-15T23:37:56.643Z,6.30
2018-07-15T23:40:25.176Z,6.90
2018-07-15T23:42:54.549Z,6.17
2018-07-15T23:45:24.379Z,6.40
2018-07-15T23:47:52.735Z,6.47
2018-07-15T23:50:21.200Z,5.97
2018-07-15T23:52:49.763Z,5.97
2018-07-15T23:55:18.640Z,5.87
2018-07-15T23:57:47.638Z,6.13
